Bruner, MO (65620)

5:51 PM CDT on August 30, 2015 (GMT -0500)
Mooney Hollow | | Change Station
CLOSE
Current Station
Personal Weather Station
Location: Rogersville, MO
Elevation: 1348 ft
Nearby Weather Stations

Elev 1348 ft 37.07 °N, 93.12 °W | Updated 24 seconds ago

Clear
Clear
83.1 °F
Feels Like 89 °F
N
2.0
Wind Variable Wind from SSE
Gusts 4.0 mph

Today
High -- | Low -- °F
--% Chance of Precip.
Yesterday
High -- | Low -- °F
Precip. -- in
6:40 AM 7:43 PM
Full, 98% visible
Pressure 29.96 in
Visibility 10.0 miles
Clouds Few 3900 ft
Heat Index 89 °F
Dew Point 73 °F
Humidity 72%
Rainfall 0.03 in
Snow Depth Not available.
UV 4 out of 12
Pollen 10.00 out of 12
Air Quality Not available.
Flu Activity Not available.
METAR KSGF 302152Z AUTO 18008KT 10SM FEW039 29/20 A2999 RMK AO2 SLP143 T02940200
Pressure 29.96 in
Visibility 10.0 miles
Clouds Few 3900 ft
Heat Index 89 °F
Dew Point 73 °F
Humidity 72%
Rainfall 0.03 in
Snow Depth Not available.
UV 4 out of 12
Pollen 10.00 out of 12
Air Quality Not available.
Flu Activity Not available.
METAR KSGF 302152Z AUTO 18008KT 10SM FEW039 29/20 A2999 RMK AO2 SLP143 T02940200

10-Day Weather Forecast

×

Almanac

Astronomy

Aug. 30, 2015 Rise Set
Actual Time
Civil Twilight
Nautical Twilight
Astronomical Twilight
Moon
Length of Visible Light
Length of Day
Tomorrow will be .
, % of the Moon is Illuminated

Today's Extremes

State Highs State Lows

Community

WunderPhotos

Upload Photos

1,851,075 photos uploaded!

WunderBlogs® & News

Nearby

Air Quality

  Air Quality AQ Index Pollutant
Not available.

Snow Depth

Station Depth Elevation

Earthquake Activity

City Distance Mag. Time & Date
Minimum magnitude displayed is 2.5.

Coastal Water Temperatures

Place Temperature

Stations

Nearby Weather Stations

Station Location Temp. Windchill Dew Point Humidity Wind Precip. Elev Updated Type